sensor_id;sensor_type;location;lat;lon;timestamp;P1;durP1;ratioP1;P2;durP2;ratioP2
11131;SDS011;5620;53.570;9.718;2023-02-20T00:00:26;3.92;;;1.20;;
11131;SDS011;5620;53.570;9.718;2023-02-20T00:02:55;2.15;;;1.02;;
11131;SDS011;5620;53.570;9.718;2023-02-20T00:05:21;3.67;;;1.45;;
11131;SDS011;5620;53.570;9.718;2023-02-20T00:07:48;6.85;;;1.27;;
11131;SDS011;5620;53.570;9.718;2023-02-20T00:10:15;4.83;;;1.10;;
11131;SDS011;5620;53.570;9.718;2023-02-20T00:12:41;1.08;;;0.98;;
11131;SDS011;5620;53.570;9.718;2023-02-20T00:15:08;1.00;;;1.00;;
11131;SDS011;5620;53.570;9.718;2023-02-20T00:17:37;5.03;;;1.42;;
11131;SDS011;5620;53.570;9.718;2023-02-20T00:20:05;1.88;;;0.90;;
11131;SDS011;5620;53.570;9.718;2023-02-20T00:22:31;1.65;;;0.98;;
11131;SDS011;5620;53.570;9.718;2023-02-20T00:24:58;2.92;;;1.00;;
11131;SDS011;5620;53.570;9.718;2023-02-20T00:27:23;3.50;;;1.38;;
11131;SDS011;5620;53.570;9.718;2023-02-20T00:29:50;1.63;;;1.23;;
11131;SDS011;5620;53.570;9.718;2023-02-20T00:32:16;3.50;;;1.05;;
11131;SDS011;5620;53.570;9.718;2023-02-20T00:34:42;2.10;;;1.35;;
11131;SDS011;5620;53.570;9.718;2023-02-20T00:37:09;2.63;;;1.07;;
11131;SDS011;5620;53.570;9.718;2023-02-20T00:39:36;2.22;;;0.98;;
11131;SDS011;5620;53.570;9.718;2023-02-20T00:42:02;1.20;;;1.20;;
11131;SDS011;5620;53.570;9.718;2023-02-20T00:44:27;2.40;;;1.30;;
11131;SDS011;5620;53.570;9.718;2023-02-20T00:46:54;1.53;;;1.03;;
11131;SDS011;5620;53.570;9.718;2023-02-20T00:49:21;2.78;;;1.23;;
11131;SDS011;5620;53.570;9.718;2023-02-20T00:51:48;1.55;;;1.40;;
11131;SDS011;5620;53.570;9.718;2023-02-20T00:54:14;3.15;;;0.90;;
11131;SDS011;5620;53.570;9.718;2023-02-20T00:56:40;1.03;;;0.93;;
11131;SDS011;5620;53.570;9.718;2023-02-20T00:59:08;1.50;;;1.15;;
11131;SDS011;5620;53.570;9.718;2023-02-20T01:01:34;4.07;;;1.30;;
11131;SDS011;5620;53.570;9.718;2023-02-20T01:04:00;1.92;;;1.40;;
11131;SDS011;5620;53.570;9.718;2023-02-20T01:06:28;1.33;;;1.30;;
11131;SDS011;5620;53.570;9.718;2023-02-20T01:08:55;1.20;;;0.90;;
11131;SDS011;5620;53.570;9.718;2023-02-20T01:11:21;2.55;;;1.00;;
11131;SDS011;5620;53.570;9.718;2023-02-20T01:13:47;5.72;;;1.23;;
11131;SDS011;5620;53.570;9.718;2023-02-20T01:16:15;2.28;;;1.17;;
11131;SDS011;5620;53.570;9.718;2023-02-20T01:18:43;3.25;;;1.50;;
11131;SDS011;5620;53.570;9.718;2023-02-20T01:21:14;3.87;;;1.37;;
11131;SDS011;5620;53.570;9.718;2023-02-20T01:23:39;5.75;;;1.52;;
11131;SDS011;5620;53.570;9.718;2023-02-20T01:26:05;1.17;;;1.13;;
11131;SDS011;5620;53.570;9.718;2023-02-20T01:28:30;1.63;;;1.30;;
11131;SDS011;5620;53.570;9.718;2023-02-20T01:30:57;4.75;;;1.63;;
11131;SDS011;5620;53.570;9.718;2023-02-20T01:33:23;2.07;;;1.17;;
11131;SDS011;5620;53.570;9.718;2023-02-20T01:35:50;1.45;;;1.02;;
11131;SDS011;5620;53.570;9.718;2023-02-20T01:38:17;1.27;;;1.17;;
11131;SDS011;5620;53.570;9.718;2023-02-20T01:40:45;1.88;;;1.20;;
11131;SDS011;5620;53.570;9.718;2023-02-20T01:43:13;1.65;;;1.48;;
11131;SDS011;5620;53.570;9.718;2023-02-20T01:45:41;1.77;;;1.60;;
11131;SDS011;5620;53.570;9.718;2023-02-20T01:48:21;2.13;;;1.35;;
11131;SDS011;5620;53.570;9.718;2023-02-20T01:50:48;2.77;;;1.20;;
11131;SDS011;5620;53.570;9.718;2023-02-20T01:53:20;1.42;;;1.33;;
11131;SDS011;5620;53.570;9.718;2023-02-20T01:55:48;1.27;;;1.10;;
11131;SDS011;5620;53.570;9.718;2023-02-20T01:58:28;0.90;;;0.90;;
11131;SDS011;5620;53.570;9.718;2023-02-20T02:00:58;1.98;;;1.80;;
11131;SDS011;5620;53.570;9.718;2023-02-20T02:03:30;5.00;;;1.37;;
11131;SDS011;5620;53.570;9.718;2023-02-20T02:06:02;1.33;;;1.23;;
11131;SDS011;5620;53.570;9.718;2023-02-20T02:08:30;1.88;;;1.48;;
11131;SDS011;5620;53.570;9.718;2023-02-20T02:11:02;1.73;;;1.58;;
11131;SDS011;5620;53.570;9.718;2023-02-20T02:13:31;1.95;;;1.85;;
11131;SDS011;5620;53.570;9.718;2023-02-20T02:16:23;1.47;;;1.37;;
11131;SDS011;5620;53.570;9.718;2023-02-20T02:33:34;5.80;;;1.70;;
11131;SDS011;5620;53.570;9.718;2023-02-20T02:44:39;1.87;;;1.77;;
11131;SDS011;5620;53.570;9.718;2023-02-20T02:47:34;2.38;;;1.35;;
11131;SDS011;5620;53.570;9.718;2023-02-20T02:50:31;8.55;;;5.43;;
11131;SDS011;5620;53.570;9.718;2023-02-20T02:52:59;2.17;;;1.98;;
11131;SDS011;5620;53.570;9.718;2023-02-20T02:55:29;1.88;;;1.77;;
11131;SDS011;5620;53.570;9.718;2023-02-20T02:57:57;2.20;;;2.10;;
11131;SDS011;5620;53.570;9.718;2023-02-20T03:08:58;2.25;;;2.05;;
11131;SDS011;5620;53.570;9.718;2023-02-20T03:11:30;1.90;;;1.70;;
11131;SDS011;5620;53.570;9.718;2023-02-20T03:14:00;2.28;;;2.08;;
11131;SDS011;5620;53.570;9.718;2023-02-20T03:16:50;2.58;;;2.38;;
11131;SDS011;5620;53.570;9.718;2023-02-20T03:20:02;2.28;;;1.52;;
11131;SDS011;5620;53.570;9.718;2023-02-20T03:22:43;3.53;;;2.80;;
11131;SDS011;5620;53.570;9.718;2023-02-20T03:25:20;2.63;;;2.37;;
11131;SDS011;5620;53.570;9.718;2023-02-20T03:28:19;4.63;;;2.53;;
11131;SDS011;5620;53.570;9.718;2023-02-20T03:31:07;3.15;;;2.15;;
11131;SDS011;5620;53.570;9.718;2023-02-20T03:36:09;2.42;;;2.25;;
11131;SDS011;5620;53.570;9.718;2023-02-20T03:38:40;2.10;;;1.90;;
11131;SDS011;5620;53.570;9.718;2023-02-20T03:41:12;2.75;;;2.55;;
11131;SDS011;5620;53.570;9.718;2023-02-20T03:43:39;3.15;;;2.78;;
11131;SDS011;5620;53.570;9.718;2023-02-20T03:46:09;2.88;;;2.55;;
11131;SDS011;5620;53.570;9.718;2023-02-20T03:48:54;3.70;;;3.20;;
11131;SDS011;5620;53.570;9.718;2023-02-20T03:51:23;3.87;;;2.50;;
11131;SDS011;5620;53.570;9.718;2023-02-20T03:53:51;2.70;;;2.50;;
11131;SDS011;5620;53.570;9.718;2023-02-20T03:56:24;3.22;;;2.60;;
11131;SDS011;5620;53.570;9.718;2023-02-20T03:59:05;3.15;;;2.80;;
11131;SDS011;5620;53.570;9.718;2023-02-20T04:01:55;1.58;;;1.48;;
11131;SDS011;5620;53.570;9.718;2023-02-20T04:04:26;3.53;;;2.27;;
11131;SDS011;5620;53.570;9.718;2023-02-20T04:06:58;2.55;;;2.30;;
11131;SDS011;5620;53.570;9.718;2023-02-20T04:09:32;2.67;;;2.47;;
11131;SDS011;5620;53.570;9.718;2023-02-20T04:12:06;2.85;;;2.65;;
11131;SDS011;5620;53.570;9.718;2023-02-20T04:14:53;2.80;;;2.60;;
11131;SDS011;5620;53.570;9.718;2023-02-20T04:17:25;3.03;;;2.43;;
11131;SDS011;5620;53.570;9.718;2023-02-20T04:19:54;4.00;;;3.65;;
11131;SDS011;5620;53.570;9.718;2023-02-20T04:22:21;7.50;;;3.25;;
11131;SDS011;5620;53.570;9.718;2023-02-20T04:25:17;3.03;;;2.77;;
11131;SDS011;5620;53.570;9.718;2023-02-20T04:27:57;2.60;;;2.50;;
11131;SDS011;5620;53.570;9.718;2023-02-20T04:30:25;4.78;;;2.97;;
11131;SDS011;5620;53.570;9.718;2023-02-20T04:32:51;4.57;;;2.70;;
11131;SDS011;5620;53.570;9.718;2023-02-20T04:35:22;3.58;;;3.28;;
11131;SDS011;5620;53.570;9.718;2023-02-20T04:37:47;5.87;;;3.10;;
11131;SDS011;5620;53.570;9.718;2023-02-20T04:40:17;3.28;;;2.97;;
11131;SDS011;5620;53.570;9.718;2023-02-20T04:42:46;5.55;;;4.50;;
11131;SDS011;5620;53.570;9.718;2023-02-20T04:45:12;4.20;;;3.47;;
11131;SDS011;5620;53.570;9.718;2023-02-20T04:47:38;4.20;;;3.75;;
11131;SDS011;5620;53.570;9.718;2023-02-20T04:50:04;3.63;;;2.63;;
11131;SDS011;5620;53.570;9.718;2023-02-20T04:52:31;3.78;;;3.47;;
11131;SDS011;5620;53.570;9.718;2023-02-20T04:54:57;4.95;;;3.83;;
11131;SDS011;5620;53.570;9.718;2023-02-20T04:57:23;7.00;;;4.15;;
11131;SDS011;5620;53.570;9.718;2023-02-20T04:59:51;3.42;;;2.33;;
11131;SDS011;5620;53.570;9.718;2023-02-20T05:02:16;4.67;;;4.00;;
11131;SDS011;5620;53.570;9.718;2023-02-20T05:04:42;6.68;;;3.78;;
11131;SDS011;5620;53.570;9.718;2023-02-20T05:07:08;3.83;;;3.53;;
11131;SDS011;5620;53.570;9.718;2023-02-20T05:09:34;5.45;;;4.18;;
11131;SDS011;5620;53.570;9.718;2023-02-20T05:12:02;4.35;;;2.80;;
11131;SDS011;5620;53.570;9.718;2023-02-20T05:14:28;5.13;;;4.07;;
11131;SDS011;5620;53.570;9.718;2023-02-20T05:16:55;5.75;;;4.35;;
11131;SDS011;5620;53.570;9.718;2023-02-20T05:19:22;7.38;;;4.28;;
11131;SDS011;5620;53.570;9.718;2023-02-20T05:21:48;5.93;;;4.60;;
11131;SDS011;5620;53.570;9.718;2023-02-20T05:24:14;6.00;;;3.67;;
11131;SDS011;5620;53.570;9.718;2023-02-20T05:26:41;3.35;;;2.95;;
11131;SDS011;5620;53.570;9.718;2023-02-20T05:29:10;6.43;;;5.88;;
11131;SDS011;5620;53.570;9.718;2023-02-20T05:31:37;5.25;;;4.75;;
11131;SDS011;5620;53.570;9.718;2023-02-20T05:34:03;4.60;;;4.20;;
11131;SDS011;5620;53.570;9.718;2023-02-20T05:36:31;5.55;;;3.38;;
11131;SDS011;5620;53.570;9.718;2023-02-20T05:38:58;6.78;;;3.40;;
11131;SDS011;5620;53.570;9.718;2023-02-20T05:41:24;4.15;;;3.58;;
11131;SDS011;5620;53.570;9.718;2023-02-20T05:43:50;8.33;;;5.70;;
11131;SDS011;5620;53.570;9.718;2023-02-20T05:46:15;3.97;;;3.47;;
11131;SDS011;5620;53.570;9.718;2023-02-20T05:48:41;6.78;;;5.60;;
11131;SDS011;5620;53.570;9.718;2023-02-20T05:51:08;7.10;;;3.92;;
11131;SDS011;5620;53.570;9.718;2023-02-20T05:53:33;5.43;;;4.37;;
11131;SDS011;5620;53.570;9.718;2023-02-20T05:56:00;4.60;;;4.20;;
11131;SDS011;5620;53.570;9.718;2023-02-20T05:58:27;7.10;;;4.47;;
11131;SDS011;5620;53.570;9.718;2023-02-20T06:00:55;11.27;;;6.40;;
11131;SDS011;5620;53.570;9.718;2023-02-20T06:03:21;7.85;;;5.90;;
11131;SDS011;5620;53.570;9.718;2023-02-20T06:05:47;4.25;;;3.85;;
11131;SDS011;5620;53.570;9.718;2023-02-20T06:08:14;5.88;;;4.05;;
11131;SDS011;5620;53.570;9.718;2023-02-20T06:10:41;8.35;;;3.95;;
11131;SDS011;5620;53.570;9.718;2023-02-20T06:13:08;6.83;;;4.20;;
11131;SDS011;5620;53.570;9.718;2023-02-20T06:15:34;5.70;;;4.15;;
11131;SDS011;5620;53.570;9.718;2023-02-20T06:18:00;19.70;;;11.47;;
11131;SDS011;5620;53.570;9.718;2023-02-20T06:20:27;5.22;;;4.78;;
11131;SDS011;5620;53.570;9.718;2023-02-20T06:22:54;5.40;;;4.90;;
11131;SDS011;5620;53.570;9.718;2023-02-20T06:25:20;9.17;;;4.20;;
11131;SDS011;5620;53.570;9.718;2023-02-20T06:27:46;4.72;;;4.32;;
11131;SDS011;5620;53.570;9.718;2023-02-20T06:30:11;7.03;;;6.23;;
11131;SDS011;5620;53.570;9.718;2023-02-20T06:32:38;6.00;;;4.13;;
11131;SDS011;5620;53.570;9.718;2023-02-20T06:35:05;8.75;;;6.85;;
11131;SDS011;5620;53.570;9.718;2023-02-20T06:37:31;5.57;;;5.10;;
11131;SDS011;5620;53.570;9.718;2023-02-20T06:40:02;6.45;;;4.78;;
11131;SDS011;5620;53.570;9.718;2023-02-20T06:42:29;5.20;;;3.83;;
11131;SDS011;5620;53.570;9.718;2023-02-20T06:44:54;6.67;;;4.43;;
11131;SDS011;5620;53.570;9.718;2023-02-20T06:47:20;4.78;;;4.28;;
11131;SDS011;5620;53.570;9.718;2023-02-20T06:49:47;6.37;;;5.10;;
11131;SDS011;5620;53.570;9.718;2023-02-20T06:52:12;7.32;;;5.22;;
11131;SDS011;5620;53.570;9.718;2023-02-20T06:54:38;9.98;;;7.22;;
11131;SDS011;5620;53.570;9.718;2023-02-20T06:57:05;8.80;;;5.63;;
11131;SDS011;5620;53.570;9.718;2023-02-20T06:59:34;9.63;;;4.20;;
11131;SDS011;5620;53.570;9.718;2023-02-20T07:02:00;7.00;;;4.63;;
11131;SDS011;5620;53.570;9.718;2023-02-20T07:04:27;6.67;;;4.93;;
11131;SDS011;5620;53.570;9.718;2023-02-20T07:06:53;5.30;;;4.53;;
11131;SDS011;5620;53.570;9.718;2023-02-20T07:09:20;6.15;;;4.55;;
11131;SDS011;5620;53.570;9.718;2023-02-20T07:11:48;5.75;;;5.00;;
11131;SDS011;5620;53.570;9.718;2023-02-20T07:14:16;7.73;;;4.10;;
11131;SDS011;5620;53.570;9.718;2023-02-20T07:16:42;6.18;;;5.40;;
11131;SDS011;5620;53.570;9.718;2023-02-20T07:19:08;5.82;;;4.80;;
11131;SDS011;5620;53.570;9.718;2023-02-20T07:21:35;5.53;;;5.03;;
11131;SDS011;5620;53.570;9.718;2023-02-20T07:24:03;7.30;;;5.75;;
11131;SDS011;5620;53.570;9.718;2023-02-20T07:26:32;13.73;;;6.63;;
11131;SDS011;5620;53.570;9.718;2023-02-20T07:28:58;13.10;;;6.18;;
11131;SDS011;5620;53.570;9.718;2023-02-20T07:31:26;8.65;;;6.20;;
11131;SDS011;5620;53.570;9.718;2023-02-20T07:33:53;5.50;;;5.13;;
11131;SDS011;5620;53.570;9.718;2023-02-20T07:36:19;10.38;;;7.38;;
11131;SDS011;5620;53.570;9.718;2023-02-20T07:38:54;5.85;;;4.82;;
11131;SDS011;5620;53.570;9.718;2023-02-20T07:41:21;7.43;;;5.43;;
11131;SDS011;5620;53.570;9.718;2023-02-20T07:43:48;11.38;;;6.18;;
11131;SDS011;5620;53.570;9.718;2023-02-20T07:46:15;11.85;;;6.75;;
11131;SDS011;5620;53.570;9.718;2023-02-20T07:48:40;8.05;;;5.70;;
11131;SDS011;5620;53.570;9.718;2023-02-20T07:51:07;14.80;;;6.28;;
11131;SDS011;5620;53.570;9.718;2023-02-20T07:53:33;10.23;;;7.20;;
11131;SDS011;5620;53.570;9.718;2023-02-20T07:56:00;9.93;;;6.67;;
11131;SDS011;5620;53.570;9.718;2023-02-20T07:58:26;10.90;;;5.00;;
11131;SDS011;5620;53.570;9.718;2023-02-20T08:00:51;7.95;;;5.45;;
11131;SDS011;5620;53.570;9.718;2023-02-20T08:03:19;11.95;;;7.20;;
11131;SDS011;5620;53.570;9.718;2023-02-20T08:05:46;9.85;;;7.10;;
11131;SDS011;5620;53.570;9.718;2023-02-20T08:08:12;7.37;;;5.77;;
11131;SDS011;5620;53.570;9.718;2023-02-20T08:10:38;9.50;;;5.18;;
11131;SDS011;5620;53.570;9.718;2023-02-20T08:13:05;9.02;;;5.47;;
11131;SDS011;5620;53.570;9.718;2023-02-20T08:15:32;17.50;;;7.47;;
11131;SDS011;5620;53.570;9.718;2023-02-20T08:17:58;18.42;;;11.50;;
11131;SDS011;5620;53.570;9.718;2023-02-20T08:20:25;6.20;;;5.35;;
11131;SDS011;5620;53.570;9.718;2023-02-20T08:22:50;12.35;;;7.95;;
11131;SDS011;5620;53.570;9.718;2023-02-20T08:25:17;10.80;;;6.20;;
11131;SDS011;5620;53.570;9.718;2023-02-20T08:27:44;12.53;;;5.50;;
11131;SDS011;5620;53.570;9.718;2023-02-20T08:30:14;8.20;;;5.55;;
11131;SDS011;5620;53.570;9.718;2023-02-20T08:32:44;8.88;;;7.18;;
11131;SDS011;5620;53.570;9.718;2023-02-20T08:35:10;5.07;;;4.20;;
11131;SDS011;5620;53.570;9.718;2023-02-20T08:37:38;6.17;;;5.57;;
11131;SDS011;5620;53.570;9.718;2023-02-20T08:40:06;8.32;;;6.45;;
11131;SDS011;5620;53.570;9.718;2023-02-20T08:42:32;8.05;;;5.22;;
11131;SDS011;5620;53.570;9.718;2023-02-20T08:44:58;10.02;;;6.20;;
11131;SDS011;5620;53.570;9.718;2023-02-20T08:47:25;6.63;;;5.40;;
11131;SDS011;5620;53.570;9.718;2023-02-20T08:49:51;11.55;;;6.80;;
11131;SDS011;5620;53.570;9.718;2023-02-20T08:52:17;5.60;;;5.05;;
11131;SDS011;5620;53.570;9.718;2023-02-20T08:54:44;12.25;;;7.30;;
11131;SDS011;5620;53.570;9.718;2023-02-20T08:57:16;8.82;;;4.63;;
11131;SDS011;5620;53.570;9.718;2023-02-20T08:59:42;13.50;;;6.28;;
11131;SDS011;5620;53.570;9.718;2023-02-20T09:02:19;7.25;;;6.55;;
11131;SDS011;5620;53.570;9.718;2023-02-20T09:04:47;10.80;;;6.53;;
11131;SDS011;5620;53.570;9.718;2023-02-20T09:07:13;8.75;;;6.55;;
11131;SDS011;5620;53.570;9.718;2023-02-20T09:09:41;9.75;;;6.68;;
11131;SDS011;5620;53.570;9.718;2023-02-20T09:12:09;5.27;;;4.83;;
11131;SDS011;5620;53.570;9.718;2023-02-20T09:14:34;11.15;;;5.95;;
11131;SDS011;5620;53.570;9.718;2023-02-20T09:17:00;9.90;;;6.07;;
11131;SDS011;5620;53.570;9.718;2023-02-20T09:19:26;7.03;;;6.33;;
11131;SDS011;5620;53.570;9.718;2023-02-20T09:21:52;6.40;;;5.80;;
11131;SDS011;5620;53.570;9.718;2023-02-20T09:24:20;16.48;;;8.82;;
11131;SDS011;5620;53.570;9.718;2023-02-20T09:26:47;12.63;;;4.68;;
11131;SDS011;5620;53.570;9.718;2023-02-20T09:29:14;12.10;;;8.03;;
11131;SDS011;5620;53.570;9.718;2023-02-20T09:31:42;11.45;;;7.68;;
11131;SDS011;5620;53.570;9.718;2023-02-20T09:34:09;10.43;;;4.38;;
11131;SDS011;5620;53.570;9.718;2023-02-20T09:36:37;7.53;;;6.03;;
11131;SDS011;5620;53.570;9.718;2023-02-20T09:39:02;14.65;;;7.45;;
11131;SDS011;5620;53.570;9.718;2023-02-20T09:44:29;7.00;;;4.97;;
11131;SDS011;5620;53.570;9.718;2023-02-20T09:47:18;10.27;;;6.57;;
11131;SDS011;5620;53.570;9.718;2023-02-20T09:50:00;9.45;;;5.55;;
11131;SDS011;5620;53.570;9.718;2023-02-20T09:52:31;6.65;;;4.60;;
11131;SDS011;5620;53.570;9.718;2023-02-20T09:55:03;8.27;;;4.93;;
11131;SDS011;5620;53.570;9.718;2023-02-20T09:57:35;6.55;;;5.40;;
11131;SDS011;5620;53.570;9.718;2023-02-20T10:00:09;16.27;;;7.10;;
11131;SDS011;5620;53.570;9.718;2023-02-20T10:06:22;6.93;;;3.65;;
11131;SDS011;5620;53.570;9.718;2023-02-20T10:08:51;4.72;;;4.25;;
11131;SDS011;5620;53.570;9.718;2023-02-20T10:11:27;8.27;;;4.97;;
11131;SDS011;5620;53.570;9.718;2023-02-20T10:14:20;8.50;;;4.28;;
11131;SDS011;5620;53.570;9.718;2023-02-20T10:25:27;4.15;;;3.55;;
11131;SDS011;5620;53.570;9.718;2023-02-20T10:28:08;6.22;;;3.60;;
11131;SDS011;5620;53.570;9.718;2023-02-20T10:30:41;6.30;;;4.05;;
11131;SDS011;5620;53.570;9.718;2023-02-20T10:33:31;9.20;;;4.50;;
11131;SDS011;5620;53.570;9.718;2023-02-20T10:47:26;7.03;;;3.05;;
11131;SDS011;5620;53.570;9.718;2023-02-20T10:50:00;4.43;;;3.20;;
11131;SDS011;5620;53.570;9.718;2023-02-20T10:52:51;9.68;;;3.95;;
11131;SDS011;5620;53.570;9.718;2023-02-20T11:01:17;5.20;;;3.42;;
11131;SDS011;5620;53.570;9.718;2023-02-20T11:06:55;3.80;;;3.50;;
11131;SDS011;5620;53.570;9.718;2023-02-20T11:09:25;4.50;;;3.55;;
11131;SDS011;5620;53.570;9.718;2023-02-20T11:11:52;6.65;;;3.30;;
11131;SDS011;5620;53.570;9.718;2023-02-20T11:17:26;5.05;;;3.78;;
11131;SDS011;5620;53.570;9.718;2023-02-20T11:19:54;2.97;;;2.58;;
11131;SDS011;5620;53.570;9.718;2023-02-20T11:22:41;5.75;;;2.88;;
11131;SDS011;5620;53.570;9.718;2023-02-20T11:25:28;4.45;;;3.25;;
11131;SDS011;5620;53.570;9.718;2023-02-20T11:28:09;4.07;;;3.28;;
11131;SDS011;5620;53.570;9.718;2023-02-20T11:30:44;10.30;;;3.05;;
11131;SDS011;5620;53.570;9.718;2023-02-20T11:35:47;8.90;;;2.40;;
11131;SDS011;5620;53.570;9.718;2023-02-20T11:51:42;2.63;;;2.42;;
11131;SDS011;5620;53.570;9.718;2023-02-20T11:59:40;3.08;;;2.30;;
11131;SDS011;5620;53.570;9.718;2023-02-20T12:10:28;1.90;;;1.48;;
11131;SDS011;5620;53.570;9.718;2023-02-20T12:13:10;2.90;;;1.88;;
11131;SDS011;5620;53.570;9.718;2023-02-20T12:15:38;3.72;;;2.03;;
11131;SDS011;5620;53.570;9.718;2023-02-20T12:26:31;3.72;;;1.98;;
11131;SDS011;5620;53.570;9.718;2023-02-20T12:29:09;4.63;;;2.45;;
11131;SDS011;5620;53.570;9.718;2023-02-20T12:32:08;3.15;;;2.20;;
11131;SDS011;5620;53.570;9.718;2023-02-20T12:43:49;4.50;;;2.13;;
11131;SDS011;5620;53.570;9.718;2023-02-20T12:47:25;1.58;;;1.48;;
11131;SDS011;5620;53.570;9.718;2023-02-20T13:00:33;3.08;;;1.70;;
11131;SDS011;5620;53.570;9.718;2023-02-20T13:03:09;5.93;;;2.40;;
11131;SDS011;5620;53.570;9.718;2023-02-20T13:05:42;3.22;;;2.05;;
11131;SDS011;5620;53.570;9.718;2023-02-20T13:08:27;2.00;;;1.83;;
11131;SDS011;5620;53.570;9.718;2023-02-20T13:11:00;2.05;;;1.85;;
11131;SDS011;5620;53.570;9.718;2023-02-20T13:13:39;1.67;;;1.58;;
11131;SDS011;5620;53.570;9.718;2023-02-20T13:16:12;3.15;;;2.05;;
11131;SDS011;5620;53.570;9.718;2023-02-20T13:18:58;2.25;;;1.45;;
11131;SDS011;5620;53.570;9.718;2023-02-20T13:21:46;1.88;;;1.63;;
11131;SDS011;5620;53.570;9.718;2023-02-20T13:27:10;5.47;;;2.22;;
11131;SDS011;5620;53.570;9.718;2023-02-20T13:29:57;8.57;;;2.45;;
11131;SDS011;5620;53.570;9.718;2023-02-20T13:32:27;3.08;;;1.52;;
11131;SDS011;5620;53.570;9.718;2023-02-20T13:35:31;7.30;;;2.03;;
11131;SDS011;5620;53.570;9.718;2023-02-20T13:38:10;3.17;;;1.85;;
11131;SDS011;5620;53.570;9.718;2023-02-20T13:40:40;4.75;;;1.98;;
11131;SDS011;5620;53.570;9.718;2023-02-20T13:48:37;5.03;;;2.22;;
11131;SDS011;5620;53.570;9.718;2023-02-20T13:53:43;4.50;;;2.38;;
11131;SDS011;5620;53.570;9.718;2023-02-20T13:56:45;4.80;;;1.98;;
11131;SDS011;5620;53.570;9.718;2023-02-20T13:59:20;4.60;;;2.28;;
11131;SDS011;5620;53.570;9.718;2023-02-20T14:02:09;3.22;;;2.42;;
11131;SDS011;5620;53.570;9.718;2023-02-20T14:05:05;2.60;;;2.38;;
11131;SDS011;5620;53.570;9.718;2023-02-20T14:07:43;4.90;;;2.50;;
11131;SDS011;5620;53.570;9.718;2023-02-20T14:13:01;5.50;;;3.25;;
11131;SDS011;5620;53.570;9.718;2023-02-20T14:15:42;8.70;;;1.65;;
11131;SDS011;5620;53.570;9.718;2023-02-20T14:23:49;2.65;;;2.03;;
11131;SDS011;5620;53.570;9.718;2023-02-20T14:26:21;4.72;;;2.45;;
11131;SDS011;5620;53.570;9.718;2023-02-20T14:28:57;7.53;;;3.58;;
11131;SDS011;5620;53.570;9.718;2023-02-20T14:39:43;2.47;;;1.88;;
11131;SDS011;5620;53.570;9.718;2023-02-20T14:42:30;9.55;;;2.53;;
11131;SDS011;5620;53.570;9.718;2023-02-20T14:45:04;7.05;;;2.45;;
11131;SDS011;5620;53.570;9.718;2023-02-20T14:47:54;3.13;;;2.22;;
11131;SDS011;5620;53.570;9.718;2023-02-20T14:50:26;5.50;;;2.80;;
11131;SDS011;5620;53.570;9.718;2023-02-20T14:53:00;4.93;;;2.70;;
11131;SDS011;5620;53.570;9.718;2023-02-20T14:55:40;12.70;;;2.88;;
11131;SDS011;5620;53.570;9.718;2023-02-20T14:58:07;6.97;;;1.98;;
11131;SDS011;5620;53.570;9.718;2023-02-20T15:00:41;3.97;;;2.25;;
11131;SDS011;5620;53.570;9.718;2023-02-20T15:03:09;5.25;;;2.58;;
11131;SDS011;5620;53.570;9.718;2023-02-20T15:05:44;5.07;;;2.20;;
11131;SDS011;5620;53.570;9.718;2023-02-20T15:08:22;2.42;;;2.22;;
11131;SDS011;5620;53.570;9.718;2023-02-20T15:10:56;2.55;;;2.35;;
11131;SDS011;5620;53.570;9.718;2023-02-20T15:13:34;3.08;;;1.92;;
11131;SDS011;5620;53.570;9.718;2023-02-20T15:16:11;3.60;;;2.00;;
11131;SDS011;5620;53.570;9.718;2023-02-20T15:18:42;5.75;;;2.42;;
11131;SDS011;5620;53.570;9.718;2023-02-20T15:21:11;6.22;;;2.17;;
11131;SDS011;5620;53.570;9.718;2023-02-20T15:23:41;4.57;;;2.63;;
11131;SDS011;5620;53.570;9.718;2023-02-20T15:34:54;3.65;;;2.78;;
11131;SDS011;5620;53.570;9.718;2023-02-20T15:37:28;2.78;;;2.58;;
11131;SDS011;5620;53.570;9.718;2023-02-20T15:40:05;2.13;;;2.00;;
11131;SDS011;5620;53.570;9.718;2023-02-20T15:42:52;5.30;;;2.67;;
11131;SDS011;5620;53.570;9.718;2023-02-20T15:45:18;3.35;;;2.97;;
11131;SDS011;5620;53.570;9.718;2023-02-20T15:47:45;6.07;;;3.13;;
11131;SDS011;5620;53.570;9.718;2023-02-20T15:50:13;7.07;;;3.03;;
11131;SDS011;5620;53.570;9.718;2023-02-20T15:52:41;4.65;;;2.95;;
11131;SDS011;5620;53.570;9.718;2023-02-20T15:55:14;3.30;;;1.95;;
11131;SDS011;5620;53.570;9.718;2023-02-20T15:57:43;9.57;;;2.57;;
11131;SDS011;5620;53.570;9.718;2023-02-20T16:00:17;6.88;;;2.80;;
11131;SDS011;5620;53.570;9.718;2023-02-20T16:02:47;7.88;;;2.20;;
11131;SDS011;5620;53.570;9.718;2023-02-20T16:05:14;2.97;;;2.20;;
11131;SDS011;5620;53.570;9.718;2023-02-20T16:07:47;3.08;;;2.53;;
11131;SDS011;5620;53.570;9.718;2023-02-20T16:10:17;7.90;;;2.55;;
11131;SDS011;5620;53.570;9.718;2023-02-20T16:12:45;3.20;;;2.55;;
11131;SDS011;5620;53.570;9.718;2023-02-20T16:15:17;4.93;;;2.25;;
11131;SDS011;5620;53.570;9.718;2023-02-20T16:17:44;5.35;;;2.45;;
11131;SDS011;5620;53.570;9.718;2023-02-20T16:20:22;9.70;;;2.60;;
11131;SDS011;5620;53.570;9.718;2023-02-20T16:22:52;5.65;;;2.80;;
11131;SDS011;5620;53.570;9.718;2023-02-20T16:25:20;3.63;;;1.98;;
11131;SDS011;5620;53.570;9.718;2023-02-20T16:27:52;3.55;;;2.60;;
11131;SDS011;5620;53.570;9.718;2023-02-20T16:30:31;2.88;;;1.70;;
11131;SDS011;5620;53.570;9.718;2023-02-20T16:33:01;1.95;;;1.85;;
11131;SDS011;5620;53.570;9.718;2023-02-20T16:35:28;9.68;;;3.67;;
11131;SDS011;5620;53.570;9.718;2023-02-20T16:37:53;5.20;;;2.90;;
11131;SDS011;5620;53.570;9.718;2023-02-20T16:40:20;8.68;;;2.92;;
11131;SDS011;5620;53.570;9.718;2023-02-20T16:42:46;4.10;;;2.33;;
11131;SDS011;5620;53.570;9.718;2023-02-20T16:45:15;4.28;;;2.22;;
11131;SDS011;5620;53.570;9.718;2023-02-20T16:47:43;4.75;;;2.10;;
11131;SDS011;5620;53.570;9.718;2023-02-20T16:50:15;5.45;;;1.90;;
11131;SDS011;5620;53.570;9.718;2023-02-20T16:52:42;7.45;;;2.25;;
11131;SDS011;5620;53.570;9.718;2023-02-20T16:57:57;1.77;;;1.67;;
11131;SDS011;5620;53.570;9.718;2023-02-20T17:00:26;3.17;;;1.85;;
11131;SDS011;5620;53.570;9.718;2023-02-20T17:02:57;6.35;;;2.17;;
11131;SDS011;5620;53.570;9.718;2023-02-20T17:05:27;4.00;;;1.83;;
11131;SDS011;5620;53.570;9.718;2023-02-20T17:07:57;3.67;;;1.90;;
11131;SDS011;5620;53.570;9.718;2023-02-20T17:10:25;2.83;;;2.25;;
11131;SDS011;5620;53.570;9.718;2023-02-20T17:12:53;4.30;;;2.67;;
11131;SDS011;5620;53.570;9.718;2023-02-20T17:15:21;3.60;;;2.40;;
11131;SDS011;5620;53.570;9.718;2023-02-20T17:17:51;3.42;;;1.17;;
11131;SDS011;5620;53.570;9.718;2023-02-20T17:20:19;1.95;;;1.23;;
11131;SDS011;5620;53.570;9.718;2023-02-20T17:22:48;3.50;;;1.85;;
11131;SDS011;5620;53.570;9.718;2023-02-20T17:25:25;3.20;;;1.40;;
11131;SDS011;5620;53.570;9.718;2023-02-20T17:27:51;10.50;;;1.50;;
11131;SDS011;5620;53.570;9.718;2023-02-20T17:30:22;3.83;;;1.80;;
11131;SDS011;5620;53.570;9.718;2023-02-20T17:32:48;1.85;;;1.58;;
11131;SDS011;5620;53.570;9.718;2023-02-20T17:35:15;2.38;;;1.38;;
11131;SDS011;5620;53.570;9.718;2023-02-20T17:37:42;3.83;;;1.67;;
11131;SDS011;5620;53.570;9.718;2023-02-20T17:40:08;1.70;;;1.60;;
11131;SDS011;5620;53.570;9.718;2023-02-20T17:42:36;1.33;;;1.23;;
11131;SDS011;5620;53.570;9.718;2023-02-20T17:45:04;3.35;;;1.40;;
11131;SDS011;5620;53.570;9.718;2023-02-20T17:47:32;1.20;;;0.68;;
11131;SDS011;5620;53.570;9.718;2023-02-20T17:50:00;0.70;;;0.70;;
11131;SDS011;5620;53.570;9.718;2023-02-20T17:52:26;1.40;;;1.23;;
11131;SDS011;5620;53.570;9.718;2023-02-20T17:54:54;2.65;;;1.83;;
11131;SDS011;5620;53.570;9.718;2023-02-20T17:57:21;2.70;;;1.98;;
11131;SDS011;5620;53.570;9.718;2023-02-20T17:59:48;0.83;;;0.83;;
11131;SDS011;5620;53.570;9.718;2023-02-20T18:02:16;3.47;;;1.08;;
11131;SDS011;5620;53.570;9.718;2023-02-20T18:04:45;1.73;;;1.27;;
11131;SDS011;5620;53.570;9.718;2023-02-20T18:07:12;1.30;;;1.20;;
11131;SDS011;5620;53.570;9.718;2023-02-20T18:09:40;2.38;;;1.50;;
11131;SDS011;5620;53.570;9.718;2023-02-20T18:12:08;1.65;;;1.52;;